sensor_id;sensor_type;location;lat;lon;timestamp;P1;durP1;ratioP1;P2;durP2;ratioP2
84138;SDS011;74250;51.528;6.748;2024-01-30T00:00:37;9.63;;;5.82;;
84138;SDS011;74250;51.528;6.748;2024-01-30T00:03:02;10.27;;;6.15;;
84138;SDS011;74250;51.528;6.748;2024-01-30T00:05:27;9.68;;;7.30;;
84138;SDS011;74250;51.528;6.748;2024-01-30T00:07:53;9.55;;;6.18;;
84138;SDS011;74250;51.528;6.748;2024-01-30T00:10:18;9.93;;;5.95;;
84138;SDS011;74250;51.528;6.748;2024-01-30T00:12:43;9.82;;;6.00;;
84138;SDS011;74250;51.528;6.748;2024-01-30T00:15:09;10.45;;;7.95;;
84138;SDS011;74250;51.528;6.748;2024-01-30T00:17:35;13.00;;;6.82;;
84138;SDS011;74250;51.528;6.748;2024-01-30T00:20:03;10.88;;;7.47;;
84138;SDS011;74250;51.528;6.748;2024-01-30T00:22:34;8.90;;;5.80;;
84138;SDS011;74250;51.528;6.748;2024-01-30T00:25:01;10.65;;;6.53;;
84138;SDS011;74250;51.528;6.748;2024-01-30T00:27:26;8.80;;;5.57;;
84138;SDS011;74250;51.528;6.748;2024-01-30T00:29:52;9.48;;;7.78;;
84138;SDS011;74250;51.528;6.748;2024-01-30T00:32:18;9.95;;;6.55;;
84138;SDS011;74250;51.528;6.748;2024-01-30T00:34:44;9.98;;;7.20;;
84138;SDS011;74250;51.528;6.748;2024-01-30T00:37:09;10.07;;;6.70;;
84138;SDS011;74250;51.528;6.748;2024-01-30T00:39:35;11.55;;;6.60;;
84138;SDS011;74250;51.528;6.748;2024-01-30T00:42:00;10.95;;;7.47;;
84138;SDS011;74250;51.528;6.748;2024-01-30T00:44:26;10.10;;;8.18;;
84138;SDS011;74250;51.528;6.748;2024-01-30T00:46:51;10.98;;;6.72;;
84138;SDS011;74250;51.528;6.748;2024-01-30T00:49:17;11.57;;;6.68;;
84138;SDS011;74250;51.528;6.748;2024-01-30T00:51:42;12.73;;;6.78;;
84138;SDS011;74250;51.528;6.748;2024-01-30T00:54:09;10.30;;;5.60;;
84138;SDS011;74250;51.528;6.748;2024-01-30T00:56:34;8.55;;;6.53;;
84138;SDS011;74250;51.528;6.748;2024-01-30T00:59:00;8.27;;;5.72;;
84138;SDS011;74250;51.528;6.748;2024-01-30T01:01:25;9.85;;;7.53;;
84138;SDS011;74250;51.528;6.748;2024-01-30T01:03:50;10.52;;;6.88;;
84138;SDS011;74250;51.528;6.748;2024-01-30T01:06:16;11.05;;;5.57;;
84138;SDS011;74250;51.528;6.748;2024-01-30T01:08:41;10.77;;;6.95;;
84138;SDS011;74250;51.528;6.748;2024-01-30T01:11:06;11.73;;;6.85;;
84138;SDS011;74250;51.528;6.748;2024-01-30T01:13:32;10.15;;;7.25;;
84138;SDS011;74250;51.528;6.748;2024-01-30T01:18:24;10.80;;;6.17;;
84138;SDS011;74250;51.528;6.748;2024-01-30T01:20:50;11.45;;;6.22;;
84138;SDS011;74250;51.528;6.748;2024-01-30T01:23:19;15.13;;;7.78;;
84138;SDS011;74250;51.528;6.748;2024-01-30T01:25:44;9.70;;;6.82;;
84138;SDS011;74250;51.528;6.748;2024-01-30T01:28:10;11.38;;;7.65;;
84138;SDS011;74250;51.528;6.748;2024-01-30T01:30:35;11.98;;;6.32;;
84138;SDS011;74250;51.528;6.748;2024-01-30T01:33:00;12.48;;;7.90;;
84138;SDS011;74250;51.528;6.748;2024-01-30T01:35:27;10.32;;;7.90;;
84138;SDS011;74250;51.528;6.748;2024-01-30T01:37:53;9.80;;;6.07;;
84138;SDS011;74250;51.528;6.748;2024-01-30T01:40:23;10.65;;;6.50;;
84138;SDS011;74250;51.528;6.748;2024-01-30T01:42:54;10.85;;;5.72;;
84138;SDS011;74250;51.528;6.748;2024-01-30T01:47:46;12.10;;;8.00;;
84138;SDS011;74250;51.528;6.748;2024-01-30T01:50:16;10.57;;;6.90;;
84138;SDS011;74250;51.528;6.748;2024-01-30T01:52:48;11.10;;;6.13;;
84138;SDS011;74250;51.528;6.748;2024-01-30T01:55:14;13.65;;;6.68;;
84138;SDS011;74250;51.528;6.748;2024-01-30T01:57:40;10.85;;;7.88;;
84138;SDS011;74250;51.528;6.748;2024-01-30T02:00:08;10.63;;;7.05;;
84138;SDS011;74250;51.528;6.748;2024-01-30T02:02:35;10.88;;;6.07;;
84138;SDS011;74250;51.528;6.748;2024-01-30T02:05:01;14.32;;;6.85;;
84138;SDS011;74250;51.528;6.748;2024-01-30T02:07:30;10.05;;;6.07;;
84138;SDS011;74250;51.528;6.748;2024-01-30T02:09:55;12.68;;;7.32;;
84138;SDS011;74250;51.528;6.748;2024-01-30T02:12:21;11.35;;;8.07;;
84138;SDS011;74250;51.528;6.748;2024-01-30T02:14:46;14.55;;;8.68;;
84138;SDS011;74250;51.528;6.748;2024-01-30T02:17:13;11.15;;;6.32;;
84138;SDS011;74250;51.528;6.748;2024-01-30T02:19:39;9.93;;;6.82;;
84138;SDS011;74250;51.528;6.748;2024-01-30T02:22:05;13.32;;;6.15;;
84138;SDS011;74250;51.528;6.748;2024-01-30T02:24:30;14.07;;;7.38;;
84138;SDS011;74250;51.528;6.748;2024-01-30T02:26:56;11.18;;;6.47;;
84138;SDS011;74250;51.528;6.748;2024-01-30T02:29:24;11.27;;;8.32;;
84138;SDS011;74250;51.528;6.748;2024-01-30T02:31:49;14.55;;;7.25;;
84138;SDS011;74250;51.528;6.748;2024-01-30T02:34:15;10.25;;;7.40;;
84138;SDS011;74250;51.528;6.748;2024-01-30T02:36:43;14.40;;;6.68;;
84138;SDS011;74250;51.528;6.748;2024-01-30T02:39:11;10.57;;;5.93;;
84138;SDS011;74250;51.528;6.748;2024-01-30T02:41:37;11.93;;;6.50;;
84138;SDS011;74250;51.528;6.748;2024-01-30T02:44:03;10.65;;;5.50;;
84138;SDS011;74250;51.528;6.748;2024-01-30T02:46:28;11.27;;;6.72;;
84138;SDS011;74250;51.528;6.748;2024-01-30T02:48:55;12.75;;;8.15;;
84138;SDS011;74250;51.528;6.748;2024-01-30T02:51:20;10.23;;;6.60;;
84138;SDS011;74250;51.528;6.748;2024-01-30T02:53:46;12.57;;;7.93;;
84138;SDS011;74250;51.528;6.748;2024-01-30T02:56:11;11.95;;;5.97;;
84138;SDS011;74250;51.528;6.748;2024-01-30T02:58:39;11.13;;;6.28;;
84138;SDS011;74250;51.528;6.748;2024-01-30T03:01:04;9.10;;;6.97;;
84138;SDS011;74250;51.528;6.748;2024-01-30T03:03:31;10.40;;;6.05;;
84138;SDS011;74250;51.528;6.748;2024-01-30T03:05:59;9.93;;;6.45;;
84138;SDS011;74250;51.528;6.748;2024-01-30T03:08:26;11.60;;;6.72;;
84138;SDS011;74250;51.528;6.748;2024-01-30T03:10:51;10.13;;;6.40;;
84138;SDS011;74250;51.528;6.748;2024-01-30T03:13:17;13.90;;;6.65;;
84138;SDS011;74250;51.528;6.748;2024-01-30T03:15:42;15.27;;;7.47;;
84138;SDS011;74250;51.528;6.748;2024-01-30T03:18:08;10.32;;;6.78;;
84138;SDS011;74250;51.528;6.748;2024-01-30T03:20:36;11.60;;;5.97;;
84138;SDS011;74250;51.528;6.748;2024-01-30T03:23:02;9.63;;;6.95;;
84138;SDS011;74250;51.528;6.748;2024-01-30T03:25:27;8.85;;;5.78;;
84138;SDS011;74250;51.528;6.748;2024-01-30T03:27:53;15.13;;;9.60;;
84138;SDS011;74250;51.528;6.748;2024-01-30T03:30:20;9.40;;;7.03;;
84138;SDS011;74250;51.528;6.748;2024-01-30T03:32:47;11.15;;;7.88;;
84138;SDS011;74250;51.528;6.748;2024-01-30T03:35:12;12.10;;;7.38;;
84138;SDS011;74250;51.528;6.748;2024-01-30T03:37:40;8.88;;;6.00;;
84138;SDS011;74250;51.528;6.748;2024-01-30T03:40:06;11.15;;;7.72;;
84138;SDS011;74250;51.528;6.748;2024-01-30T03:42:32;11.68;;;8.02;;
84138;SDS011;74250;51.528;6.748;2024-01-30T03:44:57;9.40;;;7.82;;
84138;SDS011;74250;51.528;6.748;2024-01-30T03:47:23;10.48;;;6.22;;
84138;SDS011;74250;51.528;6.748;2024-01-30T03:49:48;11.70;;;5.28;;
84138;SDS011;74250;51.528;6.748;2024-01-30T03:52:15;12.93;;;7.53;;
84138;SDS011;74250;51.528;6.748;2024-01-30T03:54:40;11.50;;;5.85;;
84138;SDS011;74250;51.528;6.748;2024-01-30T03:57:06;11.98;;;6.60;;
84138;SDS011;74250;51.528;6.748;2024-01-30T03:59:31;11.18;;;5.85;;
84138;SDS011;74250;51.528;6.748;2024-01-30T04:01:56;10.77;;;5.55;;
84138;SDS011;74250;51.528;6.748;2024-01-30T04:04:21;10.30;;;7.35;;
84138;SDS011;74250;51.528;6.748;2024-01-30T04:06:49;11.02;;;6.47;;
84138;SDS011;74250;51.528;6.748;2024-01-30T04:09:15;13.27;;;6.40;;
84138;SDS011;74250;51.528;6.748;2024-01-30T04:11:42;13.00;;;6.13;;
84138;SDS011;74250;51.528;6.748;2024-01-30T04:14:08;11.45;;;6.95;;
84138;SDS011;74250;51.528;6.748;2024-01-30T04:16:33;10.90;;;5.85;;
84138;SDS011;74250;51.528;6.748;2024-01-30T04:18:59;9.88;;;7.55;;
84138;SDS011;74250;51.528;6.748;2024-01-30T04:21:25;8.70;;;5.78;;
84138;SDS011;74250;51.528;6.748;2024-01-30T04:23:50;9.38;;;7.20;;
84138;SDS011;74250;51.528;6.748;2024-01-30T04:26:16;11.50;;;7.00;;
84138;SDS011;74250;51.528;6.748;2024-01-30T04:28:42;7.93;;;5.50;;
84138;SDS011;74250;51.528;6.748;2024-01-30T04:31:08;8.35;;;5.25;;
84138;SDS011;74250;51.528;6.748;2024-01-30T04:33:34;12.68;;;6.25;;
84138;SDS011;74250;51.528;6.748;2024-01-30T04:36:00;9.57;;;5.63;;
84138;SDS011;74250;51.528;6.748;2024-01-30T04:38:25;10.98;;;7.40;;
84138;SDS011;74250;51.528;6.748;2024-01-30T04:40:51;13.75;;;6.57;;
84138;SDS011;74250;51.528;6.748;2024-01-30T04:43:16;11.52;;;6.50;;
84138;SDS011;74250;51.528;6.748;2024-01-30T04:45:41;19.20;;;8.35;;
84138;SDS011;74250;51.528;6.748;2024-01-30T04:48:07;11.63;;;5.05;;
84138;SDS011;74250;51.528;6.748;2024-01-30T04:50:32;10.20;;;6.53;;
84138;SDS011;74250;51.528;6.748;2024-01-30T04:52:58;14.43;;;6.28;;
84138;SDS011;74250;51.528;6.748;2024-01-30T04:55:24;8.88;;;5.72;;
84138;SDS011;74250;51.528;6.748;2024-01-30T04:57:50;11.65;;;6.53;;
84138;SDS011;74250;51.528;6.748;2024-01-30T05:00:16;11.43;;;8.20;;
84138;SDS011;74250;51.528;6.748;2024-01-30T05:02:42;10.15;;;6.15;;
84138;SDS011;74250;51.528;6.748;2024-01-30T05:05:09;9.10;;;6.20;;
84138;SDS011;74250;51.528;6.748;2024-01-30T05:07:34;12.60;;;6.28;;
84138;SDS011;74250;51.528;6.748;2024-01-30T05:09:59;13.02;;;8.65;;
84138;SDS011;74250;51.528;6.748;2024-01-30T05:12:25;10.35;;;6.18;;
84138;SDS011;74250;51.528;6.748;2024-01-30T05:14:52;12.85;;;5.47;;
84138;SDS011;74250;51.528;6.748;2024-01-30T05:17:17;11.50;;;7.45;;
84138;SDS011;74250;51.528;6.748;2024-01-30T05:19:43;13.98;;;7.72;;
84138;SDS011;74250;51.528;6.748;2024-01-30T05:22:10;10.55;;;6.28;;
84138;SDS011;74250;51.528;6.748;2024-01-30T05:24:36;11.55;;;8.13;;
84138;SDS011;74250;51.528;6.748;2024-01-30T05:29:28;10.77;;;7.43;;
84138;SDS011;74250;51.528;6.748;2024-01-30T05:31:53;11.55;;;6.78;;
84138;SDS011;74250;51.528;6.748;2024-01-30T05:34:19;13.38;;;7.05;;
84138;SDS011;74250;51.528;6.748;2024-01-30T05:36:44;13.85;;;7.38;;
84138;SDS011;74250;51.528;6.748;2024-01-30T05:39:09;11.23;;;6.75;;
84138;SDS011;74250;51.528;6.748;2024-01-30T05:41:35;11.23;;;7.15;;
84138;SDS011;74250;51.528;6.748;2024-01-30T05:44:00;12.45;;;6.68;;
84138;SDS011;74250;51.528;6.748;2024-01-30T05:46:26;12.50;;;7.15;;
84138;SDS011;74250;51.528;6.748;2024-01-30T05:48:51;14.63;;;7.45;;
84138;SDS011;74250;51.528;6.748;2024-01-30T05:51:16;13.75;;;7.30;;
84138;SDS011;74250;51.528;6.748;2024-01-30T05:53:42;10.52;;;5.82;;
84138;SDS011;74250;51.528;6.748;2024-01-30T05:56:08;12.02;;;6.50;;
84138;SDS011;74250;51.528;6.748;2024-01-30T05:58:34;10.95;;;6.22;;
84138;SDS011;74250;51.528;6.748;2024-01-30T06:01:00;8.27;;;5.43;;
84138;SDS011;74250;51.528;6.748;2024-01-30T06:03:26;9.70;;;5.07;;
84138;SDS011;74250;51.528;6.748;2024-01-30T06:05:51;12.18;;;5.68;;
84138;SDS011;74250;51.528;6.748;2024-01-30T06:08:18;11.48;;;5.88;;
84138;SDS011;74250;51.528;6.748;2024-01-30T06:10:43;8.90;;;5.03;;
84138;SDS011;74250;51.528;6.748;2024-01-30T06:13:08;9.38;;;5.38;;
84138;SDS011;74250;51.528;6.748;2024-01-30T06:15:34;9.73;;;7.45;;
84138;SDS011;74250;51.528;6.748;2024-01-30T06:17:59;8.50;;;5.05;;
84138;SDS011;74250;51.528;6.748;2024-01-30T06:20:26;8.70;;;5.13;;
84138;SDS011;74250;51.528;6.748;2024-01-30T06:22:51;13.43;;;5.88;;
84138;SDS011;74250;51.528;6.748;2024-01-30T06:25:17;9.88;;;6.03;;
84138;SDS011;74250;51.528;6.748;2024-01-30T06:27:43;9.10;;;6.07;;
84138;SDS011;74250;51.528;6.748;2024-01-30T06:30:08;9.20;;;5.70;;
84138;SDS011;74250;51.528;6.748;2024-01-30T06:32:35;10.10;;;5.22;;
84138;SDS011;74250;51.528;6.748;2024-01-30T06:35:01;10.35;;;7.60;;
84138;SDS011;74250;51.528;6.748;2024-01-30T06:37:27;9.07;;;5.75;;
84138;SDS011;74250;51.528;6.748;2024-01-30T06:39:52;8.80;;;4.70;;
84138;SDS011;74250;51.528;6.748;2024-01-30T06:42:18;11.73;;;6.95;;
84138;SDS011;74250;51.528;6.748;2024-01-30T06:44:43;9.23;;;5.88;;
84138;SDS011;74250;51.528;6.748;2024-01-30T06:47:09;14.85;;;7.20;;
84138;SDS011;74250;51.528;6.748;2024-01-30T06:49:35;8.57;;;4.68;;
84138;SDS011;74250;51.528;6.748;2024-01-30T06:52:04;8.18;;;4.97;;
84138;SDS011;74250;51.528;6.748;2024-01-30T06:54:34;9.60;;;5.13;;
84138;SDS011;74250;51.528;6.748;2024-01-30T06:56:59;9.77;;;7.32;;
84138;SDS011;74250;51.528;6.748;2024-01-30T06:59:25;13.77;;;5.18;;
84138;SDS011;74250;51.528;6.748;2024-01-30T07:01:51;11.13;;;5.55;;
84138;SDS011;74250;51.528;6.748;2024-01-30T07:04:17;11.07;;;6.15;;
84138;SDS011;74250;51.528;6.748;2024-01-30T07:06:43;8.80;;;5.28;;
84138;SDS011;74250;51.528;6.748;2024-01-30T07:09:09;11.35;;;5.22;;
84138;SDS011;74250;51.528;6.748;2024-01-30T07:11:34;8.43;;;5.40;;
84138;SDS011;74250;51.528;6.748;2024-01-30T07:13:59;8.25;;;5.28;;
84138;SDS011;74250;51.528;6.748;2024-01-30T07:16:25;10.40;;;7.13;;
84138;SDS011;74250;51.528;6.748;2024-01-30T07:18:50;7.53;;;4.93;;
84138;SDS011;74250;51.528;6.748;2024-01-30T07:21:16;10.10;;;5.63;;
84138;SDS011;74250;51.528;6.748;2024-01-30T07:23:41;9.98;;;5.72;;
84138;SDS011;74250;51.528;6.748;2024-01-30T07:26:07;9.25;;;5.07;;
84138;SDS011;74250;51.528;6.748;2024-01-30T07:28:33;12.32;;;5.53;;
84138;SDS011;74250;51.528;6.748;2024-01-30T07:30:59;8.98;;;5.18;;
84138;SDS011;74250;51.528;6.748;2024-01-30T07:33:26;10.60;;;5.78;;
84138;SDS011;74250;51.528;6.748;2024-01-30T07:35:54;11.23;;;5.30;;
84138;SDS011;74250;51.528;6.748;2024-01-30T07:38:19;9.68;;;5.70;;
84138;SDS011;74250;51.528;6.748;2024-01-30T07:40:45;14.38;;;5.50;;
84138;SDS011;74250;51.528;6.748;2024-01-30T07:43:10;10.55;;;5.38;;
84138;SDS011;74250;51.528;6.748;2024-01-30T07:45:36;10.52;;;6.07;;
84138;SDS011;74250;51.528;6.748;2024-01-30T07:48:03;10.30;;;7.72;;
84138;SDS011;74250;51.528;6.748;2024-01-30T07:50:30;10.57;;;5.65;;
84138;SDS011;74250;51.528;6.748;2024-01-30T07:52:55;9.32;;;5.70;;
84138;SDS011;74250;51.528;6.748;2024-01-30T07:55:21;8.27;;;5.20;;
84138;SDS011;74250;51.528;6.748;2024-01-30T07:57:49;12.10;;;8.98;;
84138;SDS011;74250;51.528;6.748;2024-01-30T08:00:17;10.30;;;6.93;;
84138;SDS011;74250;51.528;6.748;2024-01-30T08:02:43;12.18;;;5.85;;
84138;SDS011;74250;51.528;6.748;2024-01-30T08:05:08;10.63;;;8.32;;
84138;SDS011;74250;51.528;6.748;2024-01-30T08:07:36;14.35;;;5.78;;
84138;SDS011;74250;51.528;6.748;2024-01-30T08:10:01;14.38;;;6.47;;
84138;SDS011;74250;51.528;6.748;2024-01-30T08:12:27;10.18;;;6.50;;
84138;SDS011;74250;51.528;6.748;2024-01-30T08:14:52;11.35;;;5.97;;
84138;SDS011;74250;51.528;6.748;2024-01-30T08:17:17;13.77;;;6.88;;
84138;SDS011;74250;51.528;6.748;2024-01-30T08:19:43;12.18;;;6.03;;
84138;SDS011;74250;51.528;6.748;2024-01-30T08:22:08;9.60;;;5.88;;
84138;SDS011;74250;51.528;6.748;2024-01-30T08:24:33;9.63;;;5.40;;
84138;SDS011;74250;51.528;6.748;2024-01-30T08:26:59;11.10;;;5.80;;
84138;SDS011;74250;51.528;6.748;2024-01-30T08:29:26;13.60;;;7.15;;
84138;SDS011;74250;51.528;6.748;2024-01-30T08:31:51;18.63;;;10.38;;
84138;SDS011;74250;51.528;6.748;2024-01-30T08:34:16;19.23;;;10.05;;
84138;SDS011;74250;51.528;6.748;2024-01-30T08:36:42;23.05;;;9.57;;
84138;SDS011;74250;51.528;6.748;2024-01-30T08:39:09;19.20;;;9.93;;
84138;SDS011;74250;51.528;6.748;2024-01-30T08:41:35;24.23;;;9.57;;
84138;SDS011;74250;51.528;6.748;2024-01-30T08:44:00;21.30;;;10.85;;
84138;SDS011;74250;51.528;6.748;2024-01-30T08:46:26;18.42;;;11.52;;
84138;SDS011;74250;51.528;6.748;2024-01-30T08:48:52;17.63;;;8.55;;
84138;SDS011;74250;51.528;6.748;2024-01-30T08:51:18;14.15;;;9.90;;
84138;SDS011;74250;51.528;6.748;2024-01-30T08:53:43;11.98;;;7.72;;
84138;SDS011;74250;51.528;6.748;2024-01-30T08:56:10;13.82;;;7.75;;
84138;SDS011;74250;51.528;6.748;2024-01-30T08:58:35;10.77;;;7.57;;
84138;SDS011;74250;51.528;6.748;2024-01-30T09:01:01;13.93;;;7.68;;
84138;SDS011;74250;51.528;6.748;2024-01-30T09:03:28;16.42;;;9.77;;
84138;SDS011;74250;51.528;6.748;2024-01-30T09:05:54;15.10;;;9.00;;
84138;SDS011;74250;51.528;6.748;2024-01-30T09:08:19;11.10;;;6.82;;
84138;SDS011;74250;51.528;6.748;2024-01-30T09:10:44;11.70;;;6.75;;
84138;SDS011;74250;51.528;6.748;2024-01-30T09:13:10;13.13;;;9.32;;
84138;SDS011;74250;51.528;6.748;2024-01-30T09:15:35;17.80;;;9.63;;
84138;SDS011;74250;51.528;6.748;2024-01-30T09:18:00;18.30;;;9.77;;
84138;SDS011;74250;51.528;6.748;2024-01-30T09:20:26;20.80;;;11.25;;
84138;SDS011;74250;51.528;6.748;2024-01-30T09:22:51;16.38;;;9.38;;
84138;SDS011;74250;51.528;6.748;2024-01-30T09:25:17;18.17;;;9.32;;
84138;SDS011;74250;51.528;6.748;2024-01-30T09:27:43;19.02;;;8.48;;
84138;SDS011;74250;51.528;6.748;2024-01-30T09:30:09;17.83;;;9.32;;
84138;SDS011;74250;51.528;6.748;2024-01-30T09:32:34;17.65;;;7.95;;
84138;SDS011;74250;51.528;6.748;2024-01-30T09:35:00;15.82;;;8.68;;
84138;SDS011;74250;51.528;6.748;2024-01-30T09:37:25;14.20;;;9.15;;
84138;SDS011;74250;51.528;6.748;2024-01-30T09:39:50;14.30;;;8.73;;
84138;SDS011;74250;51.528;6.748;2024-01-30T09:42:34;25.15;;;10.32;;
84138;SDS011;74250;51.528;6.748;2024-01-30T09:45:04;28.42;;;12.98;;
84138;SDS011;74250;51.528;6.748;2024-01-30T09:47:43;23.33;;;10.85;;
84138;SDS011;74250;51.528;6.748;2024-01-30T09:50:10;18.77;;;10.05;;
84138;SDS011;74250;51.528;6.748;2024-01-30T09:52:36;16.83;;;9.88;;
84138;SDS011;74250;51.528;6.748;2024-01-30T09:55:01;15.90;;;9.32;;
84138;SDS011;74250;51.528;6.748;2024-01-30T09:57:29;16.40;;;10.02;;
84138;SDS011;74250;51.528;6.748;2024-01-30T10:02:20;13.27;;;7.50;;
84138;SDS011;74250;51.528;6.748;2024-01-30T10:04:50;15.68;;;8.30;;
84138;SDS011;74250;51.528;6.748;2024-01-30T10:07:16;15.32;;;8.93;;
84138;SDS011;74250;51.528;6.748;2024-01-30T10:09:42;14.90;;;7.80;;
84138;SDS011;74250;51.528;6.748;2024-01-30T10:12:08;13.38;;;8.70;;
84138;SDS011;74250;51.528;6.748;2024-01-30T10:14:37;19.02;;;10.48;;
84138;SDS011;74250;51.528;6.748;2024-01-30T10:17:03;15.52;;;8.15;;
84138;SDS011;74250;51.528;6.748;2024-01-30T10:19:29;17.05;;;10.57;;
84138;SDS011;74250;51.528;6.748;2024-01-30T10:22:00;15.80;;;7.00;;
84138;SDS011;74250;51.528;6.748;2024-01-30T10:24:28;18.15;;;8.55;;
84138;SDS011;74250;51.528;6.748;2024-01-30T10:26:54;20.35;;;9.15;;
84138;SDS011;74250;51.528;6.748;2024-01-30T10:29:21;10.45;;;6.78;;
84138;SDS011;74250;51.528;6.748;2024-01-30T10:34:32;20.48;;;8.13;;
84138;SDS011;74250;51.528;6.748;2024-01-30T10:37:08;18.73;;;8.50;;
84138;SDS011;74250;51.528;6.748;2024-01-30T10:39:42;22.23;;;9.05;;
84138;SDS011;74250;51.528;6.748;2024-01-30T10:42:14;16.63;;;7.80;;
84138;SDS011;74250;51.528;6.748;2024-01-30T10:47:27;20.77;;;12.05;;
84138;SDS011;74250;51.528;6.748;2024-01-30T10:49:55;17.65;;;9.27;;
84138;SDS011;74250;51.528;6.748;2024-01-30T10:52:21;16.25;;;8.50;;
84138;SDS011;74250;51.528;6.748;2024-01-30T10:54:48;12.75;;;7.18;;
84138;SDS011;74250;51.528;6.748;2024-01-30T10:57:15;14.82;;;9.50;;
84138;SDS011;74250;51.528;6.748;2024-01-30T10:59:41;16.52;;;8.15;;
84138;SDS011;74250;51.528;6.748;2024-01-30T11:02:06;11.68;;;6.65;;
84138;SDS011;74250;51.528;6.748;2024-01-30T11:04:38;12.13;;;7.32;;
84138;SDS011;74250;51.528;6.748;2024-01-30T11:07:19;13.55;;;7.55;;
84138;SDS011;74250;51.528;6.748;2024-01-30T11:09:50;14.27;;;7.10;;
84138;SDS011;74250;51.528;6.748;2024-01-30T11:14:41;12.73;;;7.25;;
84138;SDS011;74250;51.528;6.748;2024-01-30T11:17:06;13.57;;;7.93;;
84138;SDS011;74250;51.528;6.748;2024-01-30T11:19:31;13.77;;;7.10;;
84138;SDS011;74250;51.528;6.748;2024-01-30T11:21:58;13.70;;;7.13;;
84138;SDS011;74250;51.528;6.748;2024-01-30T11:24:23;10.77;;;6.70;;
84138;SDS011;74250;51.528;6.748;2024-01-30T11:26:49;13.63;;;7.35;;
84138;SDS011;74250;51.528;6.748;2024-01-30T11:29:20;15.90;;;7.00;;
84138;SDS011;74250;51.528;6.748;2024-01-30T11:31:55;14.07;;;7.55;;
84138;SDS011;74250;51.528;6.748;2024-01-30T11:34:22;12.10;;;8.18;;
84138;SDS011;74250;51.528;6.748;2024-01-30T11:36:48;17.60;;;8.93;;
84138;SDS011;74250;51.528;6.748;2024-01-30T11:39:20;13.95;;;8.52;;
84138;SDS011;74250;51.528;6.748;2024-01-30T11:41:45;15.05;;;7.75;;
84138;SDS011;74250;51.528;6.748;2024-01-30T11:44:11;18.25;;;8.05;;
84138;SDS011;74250;51.528;6.748;2024-01-30T11:46:36;9.90;;;7.03;;
84138;SDS011;74250;51.528;6.748;2024-01-30T11:49:02;12.93;;;7.70;;
84138;SDS011;74250;51.528;6.748;2024-01-30T11:51:27;10.77;;;5.93;;
84138;SDS011;74250;51.528;6.748;2024-01-30T11:53:53;12.10;;;6.35;;
84138;SDS011;74250;51.528;6.748;2024-01-30T11:56:18;15.77;;;9.00;;
84138;SDS011;74250;51.528;6.748;2024-01-30T11:58:43;10.85;;;5.97;;
84138;SDS011;74250;51.528;6.748;2024-01-30T12:01:09;17.63;;;7.90;;
84138;SDS011;74250;51.528;6.748;2024-01-30T12:03:35;14.18;;;8.18;;
84138;SDS011;74250;51.528;6.748;2024-01-30T12:06:02;13.07;;;6.97;;
84138;SDS011;74250;51.528;6.748;2024-01-30T12:08:28;12.68;;;6.93;;
84138;SDS011;74250;51.528;6.748;2024-01-30T12:10:56;15.60;;;6.80;;
84138;SDS011;74250;51.528;6.748;2024-01-30T12:13:23;15.07;;;7.35;;
84138;SDS011;74250;51.528;6.748;2024-01-30T12:15:49;17.60;;;10.85;;
84138;SDS011;74250;51.528;6.748;2024-01-30T12:18:18;17.23;;;8.02;;
84138;SDS011;74250;51.528;6.748;2024-01-30T12:20:44;14.98;;;7.72;;
84138;SDS011;74250;51.528;6.748;2024-01-30T12:23:09;15.25;;;7.45;;
84138;SDS011;74250;51.528;6.748;2024-01-30T12:25:37;13.05;;;6.45;;
84138;SDS011;74250;51.528;6.748;2024-01-30T12:28:02;16.15;;;6.43;;
84138;SDS011;74250;51.528;6.748;2024-01-30T12:30:29;15.52;;;6.95;;
84138;SDS011;74250;51.528;6.748;2024-01-30T12:32:56;14.77;;;7.00;;
84138;SDS011;74250;51.528;6.748;2024-01-30T12:35:23;15.32;;;7.03;;
84138;SDS011;74250;51.528;6.748;2024-01-30T12:37:48;12.80;;;7.22;;
84138;SDS011;74250;51.528;6.748;2024-01-30T12:40:14;13.35;;;7.25;;
84138;SDS011;74250;51.528;6.748;2024-01-30T12:42:40;13.05;;;6.50;;
84138;SDS011;74250;51.528;6.748;2024-01-30T12:45:11;14.68;;;9.73;;
84138;SDS011;74250;51.528;6.748;2024-01-30T12:47:36;16.33;;;8.73;;
84138;SDS011;74250;51.528;6.748;2024-01-30T12:50:03;12.10;;;6.72;;
84138;SDS011;74250;51.528;6.748;2024-01-30T12:52:44;16.17;;;7.15;;
84138;SDS011;74250;51.528;6.748;2024-01-30T12:55:10;12.95;;;8.32;;
84138;SDS011;74250;51.528;6.748;2024-01-30T12:57:35;13.52;;;7.25;;
84138;SDS011;74250;51.528;6.748;2024-01-30T13:00:01;12.05;;;6.68;;
84138;SDS011;74250;51.528;6.748;2024-01-30T13:02:26;13.90;;;5.97;;
84138;SDS011;74250;51.528;6.748;2024-01-30T13:04:55;13.38;;;7.40;;
84138;SDS011;74250;51.528;6.748;2024-01-30T13:07:21;13.27;;;7.43;;
84138;SDS011;74250;51.528;6.748;2024-01-30T13:09:46;18.10;;;8.27;;
84138;SDS011;74250;51.528;6.748;2024-01-30T13:12:12;17.30;;;7.97;;
84138;SDS011;74250;51.528;6.748;2024-01-30T13:14:38;15.32;;;7.68;;
84138;SDS011;74250;51.528;6.748;2024-01-30T13:17:04;9.60;;;5.43;;
84138;SDS011;74250;51.528;6.748;2024-01-30T13:19:29;11.73;;;6.63;;
84138;SDS011;74250;51.528;6.748;2024-01-30T13:21:55;11.38;;;6.22;;
84138;SDS011;74250;51.528;6.748;2024-01-30T13:24:20;14.80;;;7.28;;
84138;SDS011;74250;51.528;6.748;2024-01-30T13:26:46;13.82;;;7.47;;
84138;SDS011;74250;51.528;6.748;2024-01-30T13:29:12;17.77;;;10.02;;
84138;SDS011;74250;51.528;6.748;2024-01-30T13:31:37;14.98;;;7.45;;
84138;SDS011;74250;51.528;6.748;2024-01-30T13:34:04;12.52;;;7.22;;
84138;SDS011;74250;51.528;6.748;2024-01-30T13:36:31;10.85;;;6.97;;
84138;SDS011;74250;51.528;6.748;2024-01-30T13:38:57;13.77;;;7.95;;
84138;SDS011;74250;51.528;6.748;2024-01-30T13:41:23;13.73;;;6.85;;
84138;SDS011;74250;51.528;6.748;2024-01-30T13:43:53;13.95;;;5.43;;
84138;SDS011;74250;51.528;6.748;2024-01-30T13:46:19;13.07;;;6.88;;
84138;SDS011;74250;51.528;6.748;2024-01-30T13:48:44;10.05;;;6.60;;
84138;SDS011;74250;51.528;6.748;2024-01-30T13:51:09;15.50;;;6.18;;
84138;SDS011;74250;51.528;6.748;2024-01-30T13:53:36;13.52;;;6.93;;
84138;SDS011;74250;51.528;6.748;2024-01-30T13:56:01;12.20;;;7.35;;
84138;SDS011;74250;51.528;6.748;2024-01-30T13:58:26;13.25;;;5.30;;
84138;SDS011;74250;51.528;6.748;2024-01-30T14:00:52;13.00;;;9.32;;
84138;SDS011;74250;51.528;6.748;2024-01-30T14:03:18;12.10;;;7.68;;
84138;SDS011;74250;51.528;6.748;2024-01-30T14:05:43;11.10;;;6.60;;
84138;SDS011;74250;51.528;6.748;2024-01-30T14:08:09;11.30;;;5.70;;
84138;SDS011;74250;51.528;6.748;2024-01-30T14:10:34;14.70;;;9.32;;
84138;SDS011;74250;51.528;6.748;2024-01-30T14:13:00;15.95;;;9.38;;
84138;SDS011;74250;51.528;6.748;2024-01-30T14:15:25;13.07;;;7.22;;
84138;SDS011;74250;51.528;6.748;2024-01-30T14:17:51;9.88;;;7.47;;
84138;SDS011;74250;51.528;6.748;2024-01-30T14:20:16;12.55;;;6.88;;
84138;SDS011;74250;51.528;6.748;2024-01-30T14:22:42;10.75;;;6.05;;
84138;SDS011;74250;51.528;6.748;2024-01-30T14:25:08;10.57;;;5.57;;
84138;SDS011;74250;51.528;6.748;2024-01-30T14:27:34;8.60;;;7.22;;
84138;SDS011;74250;51.528;6.748;2024-01-30T14:30:02;8.73;;;7.22;;
84138;SDS011;74250;51.528;6.748;2024-01-30T14:32:30;10.02;;;4.63;;
84138;SDS011;74250;51.528;6.748;2024-01-30T14:34:56;7.68;;;2.92;;
84138;SDS011;74250;51.528;6.748;2024-01-30T14:37:22;8.73;;;4.25;;
84138;SDS011;74250;51.528;6.748;2024-01-30T14:39:50;5.95;;;3.00;;
84138;SDS011;74250;51.528;6.748;2024-01-30T14:42:15;7.32;;;2.63;;
84138;SDS011;74250;51.528;6.748;2024-01-30T14:44:41;9.07;;;3.55;;
84138;SDS011;74250;51.528;6.748;2024-01-30T14:47:08;9.65;;;4.97;;